Wayland, Ohio
Current Conditions -  °F | °C
As of 10:14 PM on Saturday 20 Dec 2014 (Local Time) from KPOV Reporting Station
NA  
Wind Chill: 28°   Ceiling: NA
Heat Index: 28°   Visibility: 10mi
Dew Point: 20°   Wind: 0mph
Humidity: 72%   Direction: NA
Pressure: 30.27"   Gusts: NA
Location:  41.16°N, 81.07°W
Report Text: KPOV 210314Z AUTO 00000KT 10SM M02/M06 A3027 RMK AO2 T10201064
Loading
Personal Weather Stations






























Interactive Weather Map New forecast layout! Learn more

10-Day Weather Forecast

Advertisements
Track Severe Weather on mobile